Terminal Aerodrome Forecast
Issued by NWS Pocatello, ID

Home | Current Version | Previous Version | Text Only | Print | Product List | Glossary On
Versions: 1 2 3 4 5 6 7 8 9 10 11 12 13
000
FTUS45 KPIH 162322
TAFPIH
TAF
KPIH 162322Z 1700/1724 26011G17KT P6SM SKC
     FM170200 20007KT P6SM SKC
     FM171800 26014G24KT P6SM SKC=

USA.gov is the U.S. government's official web portal to all federal, state and local government web resources and services.